createdAt,value
2024-03-08T00:00:27.687Z,9.70
2024-03-08T00:01:26.444Z,8.80
2024-03-08T00:02:31.127Z,10.50
2024-03-08T00:03:26.500Z,8.90
2024-03-08T00:04:26.472Z,9.60
2024-03-08T00:05:26.461Z,8.70
2024-03-08T00:06:27.627Z,8.90
2024-03-08T00:07:26.367Z,9.10
2024-03-08T00:08:27.596Z,9.70
2024-03-08T00:09:26.331Z,8.80
2024-03-08T00:10:28.470Z,10.10
2024-03-08T00:11:26.399Z,9.20
2024-03-08T00:12:26.484Z,10.50
2024-03-08T00:13:26.336Z,9.40
2024-03-08T00:14:27.132Z,9.50
2024-03-08T00:15:26.264Z,8.70
2024-03-08T00:16:26.507Z,10.10
2024-03-08T00:17:26.306Z,9.80
2024-03-08T00:18:26.614Z,9.80
2024-03-08T00:19:26.266Z,10.20
2024-03-08T00:20:26.433Z,9.40
2024-03-08T00:21:26.224Z,10.00
2024-03-08T00:22:26.437Z,10.70
2024-03-08T00:23:26.182Z,10.40
2024-03-08T00:24:26.374Z,10.10
2024-03-08T00:25:26.144Z,9.30
2024-03-08T00:26:26.419Z,9.80
2024-03-08T00:27:26.164Z,9.40
2024-03-08T00:28:26.277Z,10.50
2024-03-08T00:29:26.141Z,9.50
2024-03-08T00:30:26.164Z,10.10
2024-03-08T00:31:26.074Z,10.50
2024-03-08T00:32:26.299Z,9.80
2024-03-08T00:33:26.201Z,9.00
2024-03-08T00:34:26.143Z,8.50
2024-03-08T00:35:26.159Z,9.40
2024-03-08T00:36:26.176Z,9.30
2024-03-08T00:37:25.993Z,9.10
2024-03-08T00:38:26.147Z,9.70
2024-03-08T00:39:26.001Z,9.80
2024-03-08T00:40:27.018Z,9.70
2024-03-08T00:41:25.982Z,9.40
2024-03-08T00:42:26.209Z,9.90
2024-03-08T00:43:25.940Z,9.20
2024-03-08T00:44:27.048Z,9.40
2024-03-08T00:45:25.912Z,9.00
2024-03-08T00:46:25.932Z,9.50
2024-03-08T00:47:25.965Z,9.50
2024-03-08T00:48:27.116Z,8.90
2024-03-08T00:49:25.913Z,9.30
2024-03-08T00:50:26.003Z,10.50
2024-03-08T00:51:25.832Z,9.40
2024-03-08T00:52:25.871Z,9.80
2024-03-08T00:53:25.911Z,9.80
2024-03-08T00:54:25.985Z,10.00
2024-03-08T00:55:25.821Z,9.50
2024-03-08T00:56:46.924Z,10.30
2024-03-08T00:57:25.725Z,9.90
2024-03-08T00:58:25.902Z,10.00
2024-03-08T00:59:25.763Z,9.90
2024-03-08T01:00:25.877Z,10.30
2024-03-08T01:01:25.695Z,9.40
2024-03-08T01:02:25.875Z,10.10
2024-03-08T01:03:25.670Z,10.10
2024-03-08T01:04:25.750Z,10.20
2024-03-08T01:05:25.787Z,8.50
2024-03-08T01:06:25.739Z,9.20
2024-03-08T01:07:25.607Z,8.30
2024-03-08T01:08:25.737Z,8.60
2024-03-08T01:09:25.584Z,9.10
2024-03-08T01:10:25.629Z,9.40
2024-03-08T01:11:25.669Z,9.00
2024-03-08T01:12:25.591Z,9.60
2024-03-08T01:13:25.529Z,9.90
2024-03-08T01:14:25.746Z,10.20
2024-03-08T01:15:25.499Z,10.90
2024-03-08T01:16:26.536Z,10.10
2024-03-08T01:17:25.566Z,9.10
2024-03-08T01:18:25.818Z,9.00
2024-03-08T01:19:25.817Z,9.70
2024-03-08T01:20:25.534Z,8.80
2024-03-08T01:21:25.429Z,9.30
2024-03-08T01:22:25.641Z,8.80
2024-03-08T01:23:25.423Z,10.60
2024-03-08T01:24:25.559Z,10.70
2024-03-08T01:25:25.387Z,10.80
2024-03-08T01:26:25.377Z,9.10
2024-03-08T01:27:25.335Z,9.60
2024-03-08T01:28:25.452Z,11.00
2024-03-08T01:29:25.322Z,10.00
2024-03-08T01:30:25.489Z,9.80
2024-03-08T01:31:25.289Z,8.80
2024-03-08T01:32:25.337Z,9.00
2024-03-08T01:33:25.757Z,9.70
2024-03-08T01:34:26.434Z,9.30
2024-03-08T01:35:25.238Z,9.10
2024-03-08T01:36:25.343Z,9.10
2024-03-08T01:37:25.317Z,9.30
2024-03-08T01:38:26.057Z,9.00
2024-03-08T01:39:25.247Z,9.40
2024-03-08T01:40:25.400Z,9.60
2024-03-08T01:41:25.252Z,9.10
2024-03-08T01:42:25.316Z,8.20
2024-03-08T01:43:25.214Z,8.10
2024-03-08T01:44:25.295Z,7.90
2024-03-08T01:45:25.216Z,9.20
2024-03-08T01:46:25.338Z,9.50
2024-03-08T01:47:25.420Z,9.50
2024-03-08T01:48:25.622Z,9.20
2024-03-08T01:49:25.100Z,10.00
2024-03-08T01:50:25.302Z,9.80
2024-03-08T01:51:25.261Z,8.60
2024-03-08T01:52:25.249Z,9.30
2024-03-08T01:53:25.066Z,8.70
2024-03-08T01:54:24.989Z,9.20
2024-03-08T01:55:25.256Z,9.80
2024-03-08T01:56:24.999Z,10.30
2024-03-08T01:57:25.170Z,10.00
2024-03-08T01:58:24.965Z,8.60
2024-03-08T01:59:25.000Z,9.00
2024-03-08T02:00:24.972Z,10.20
2024-03-08T02:01:25.366Z,8.90
2024-03-08T02:02:24.930Z,9.60
2024-03-08T02:03:25.078Z,8.20
2024-03-08T02:04:24.877Z,9.30
2024-03-08T02:06:23.773Z,8.30
2024-03-08T02:07:24.577Z,8.40
2024-03-08T02:08:24.499Z,8.40
2024-03-08T02:09:24.597Z,9.70
2024-03-08T02:10:24.471Z,9.00
2024-03-08T02:11:24.692Z,9.10
2024-03-08T02:12:24.532Z,9.50
2024-03-08T02:13:24.477Z,9.60
2024-03-08T02:14:24.490Z,9.40
2024-03-08T02:15:24.479Z,8.90
2024-03-08T02:16:24.415Z,9.10
2024-03-08T02:17:24.564Z,8.40
2024-03-08T02:18:24.678Z,9.20
2024-03-08T02:19:24.398Z,8.20
2024-03-08T02:20:24.390Z,9.70
2024-03-08T02:21:24.525Z,8.50
2024-03-08T02:22:25.019Z,8.70
2024-03-08T02:23:24.444Z,8.70
2024-03-08T02:24:24.314Z,8.90
2024-03-08T02:25:24.377Z,9.10
2024-03-08T02:26:24.299Z,9.80
2024-03-08T02:27:24.441Z,8.90
2024-03-08T02:28:24.244Z,9.60
2024-03-08T02:29:24.386Z,8.70
2024-03-08T02:30:24.248Z,8.50
2024-03-08T02:31:24.414Z,8.50
2024-03-08T02:32:24.195Z,8.10
2024-03-08T02:33:24.503Z,8.90
2024-03-08T02:34:24.185Z,7.80
2024-03-08T02:35:24.319Z,8.30
2024-03-08T02:36:24.239Z,8.70
2024-03-08T02:37:24.399Z,8.10
2024-03-08T02:38:24.109Z,9.20
2024-03-08T02:39:24.495Z,10.30
2024-03-08T02:40:24.071Z,9.80
2024-03-08T02:41:26.039Z,9.50
2024-03-08T02:42:24.076Z,8.20
2024-03-08T02:43:24.498Z,8.70
2024-03-08T02:44:24.023Z,9.20
2024-03-08T02:45:24.248Z,9.50
2024-03-08T02:46:23.999Z,9.50
2024-03-08T02:47:27.028Z,9.00
2024-03-08T02:48:24.431Z,9.30
2024-03-08T02:49:24.224Z,9.40
2024-03-08T02:50:23.945Z,8.90
2024-03-08T02:51:50.058Z,9.20
2024-03-08T02:52:23.952Z,8.60
2024-03-08T02:53:24.114Z,9.40
2024-03-08T02:54:23.929Z,8.80
2024-03-08T02:55:23.989Z,10.00
2024-03-08T02:56:23.910Z,9.70
2024-03-08T02:57:24.120Z,9.40
2024-03-08T02:58:23.986Z,9.80
2024-03-08T02:59:23.952Z,9.20
2024-03-08T03:00:23.847Z,9.90
2024-03-08T03:01:24.116Z,8.80
2024-03-08T03:02:23.817Z,8.60
2024-03-08T03:03:23.952Z,10.00
2024-03-08T03:04:23.865Z,8.60
2024-03-08T03:05:23.997Z,9.90
2024-03-08T03:06:24.050Z,8.90
2024-03-08T03:07:23.739Z,9.60
2024-03-08T03:08:24.003Z,9.10
2024-03-08T03:09:23.729Z,9.20
2024-03-08T03:10:23.854Z,9.40
2024-03-08T03:11:23.995Z,9.00
2024-03-08T03:12:23.719Z,8.70
2024-03-08T03:13:23.917Z,9.80
2024-03-08T03:14:23.979Z,9.30
2024-03-08T03:15:27.206Z,9.00
2024-03-08T03:16:23.660Z,9.00
2024-03-08T03:17:23.773Z,9.20
2024-03-08T03:18:23.661Z,9.10
2024-03-08T03:19:23.783Z,9.60
2024-03-08T03:20:23.631Z,8.80
2024-03-08T03:21:24.885Z,9.10
2024-03-08T03:22:23.576Z,8.40
2024-03-08T03:23:25.351Z,8.60
2024-03-08T03:24:23.566Z,8.20
2024-03-08T03:25:23.751Z,9.30
2024-03-08T03:26:23.552Z,9.40
2024-03-08T03:27:23.610Z,9.30
2024-03-08T03:28:23.543Z,9.00
2024-03-08T03:29:23.729Z,8.70
2024-03-08T03:30:23.539Z,8.70
2024-03-08T03:31:23.673Z,9.10
2024-03-08T03:32:23.479Z,9.00
2024-03-08T03:33:23.849Z,9.70
2024-03-08T03:34:23.465Z,9.60
2024-03-08T03:35:25.732Z,9.20
2024-03-08T03:36:23.476Z,9.00
2024-03-08T03:37:23.571Z,9.10
2024-03-08T03:38:23.424Z,9.80
2024-03-08T03:39:23.534Z,9.70
2024-03-08T03:40:23.367Z,9.00
2024-03-08T03:41:23.731Z,9.70
2024-03-08T03:42:23.324Z,10.30
2024-03-08T03:43:23.539Z,9.40
2024-03-08T03:44:23.285Z,9.50
2024-03-08T03:45:23.549Z,9.80
2024-03-08T03:46:23.304Z,10.00
2024-03-08T03:47:23.441Z,9.10
2024-03-08T03:48:23.320Z,9.60
2024-03-08T03:49:23.930Z,10.00
2024-03-08T03:50:23.229Z,8.90
2024-03-08T03:51:23.474Z,9.00
2024-03-08T03:52:23.213Z,8.90
2024-03-08T03:53:23.389Z,9.70
2024-03-08T03:54:23.237Z,9.50
2024-03-08T03:55:23.284Z,9.10
2024-03-08T03:56:23.154Z,10.20
2024-03-08T03:57:23.300Z,9.80
2024-03-08T03:58:23.169Z,9.00
2024-03-08T03:59:23.371Z,9.20
2024-03-08T04:00:23.137Z,9.10
2024-03-08T04:01:23.357Z,8.90
2024-03-08T04:02:23.099Z,9.10
2024-03-08T04:03:23.240Z,10.00
2024-03-08T04:04:23.072Z,9.20
2024-03-08T04:05:23.370Z,8.90
2024-03-08T04:06:23.130Z,9.20
2024-03-08T04:07:23.266Z,8.60
2024-03-08T04:08:23.014Z,9.20
2024-03-08T04:09:23.083Z,8.70
2024-03-08T04:10:23.118Z,9.00
2024-03-08T04:11:23.206Z,9.60
2024-03-08T04:12:23.010Z,9.60
2024-03-08T04:13:24.159Z,10.10
2024-03-08T04:14:22.944Z,8.70
2024-03-08T04:15:23.043Z,8.80
2024-03-08T04:16:22.921Z,9.50
2024-03-08T04:17:23.151Z,9.00
2024-03-08T04:18:22.992Z,9.00
2024-03-08T04:19:23.178Z,9.50
2024-03-08T04:20:23.188Z,9.00
2024-03-08T04:21:22.984Z,8.90
2024-03-08T04:22:22.846Z,8.40
2024-03-08T04:23:23.017Z,9.30
2024-03-08T04:24:22.950Z,9.50
2024-03-08T04:25:23.006Z,10.00
2024-03-08T04:26:22.924Z,8.50
2024-03-08T04:27:22.764Z,9.80
2024-03-08T04:28:22.931Z,10.70
2024-03-08T04:29:22.769Z,9.20
2024-03-08T04:30:23.143Z,9.60
2024-03-08T04:31:22.876Z,9.10
2024-03-08T04:32:22.735Z,9.20
2024-03-08T04:33:23.022Z,9.20
2024-03-08T04:34:22.720Z,10.20
2024-03-08T04:35:22.875Z,10.40
2024-03-08T04:36:22.666Z,9.40
2024-03-08T04:37:22.897Z,9.80
2024-03-08T04:38:22.632Z,9.50
2024-03-08T04:39:22.829Z,8.40
2024-03-08T04:40:22.634Z,9.70
2024-03-08T04:41:22.816Z,10.00
2024-03-08T04:42:22.662Z,10.10
2024-03-08T04:43:22.709Z,10.00
2024-03-08T04:44:22.614Z,10.90
2024-03-08T04:45:22.942Z,9.60
2024-03-08T04:46:22.595Z,9.80
2024-03-08T04:47:22.903Z,9.50
2024-03-08T04:48:22.623Z,10.00
2024-03-08T04:49:22.667Z,9.60
2024-03-08T04:50:22.514Z,10.20
2024-03-08T04:51:22.779Z,10.50
2024-03-08T04:52:22.448Z,9.60
2024-03-08T04:53:22.619Z,9.70
2024-03-08T04:54:22.452Z,10.50
2024-03-08T04:55:22.770Z,9.70
2024-03-08T04:56:22.414Z,10.10
2024-03-08T04:57:22.735Z,9.70
2024-03-08T04:58:22.394Z,11.30
2024-03-08T04:59:22.541Z,9.70
2024-03-08T05:00:22.432Z,10.40
2024-03-08T05:01:22.757Z,11.50
2024-03-08T05:02:22.346Z,10.90
2024-03-08T05:03:44.567Z,10.40
2024-03-08T05:04:22.339Z,9.90
2024-03-08T05:05:22.574Z,10.00
2024-03-08T05:06:22.268Z,10.10
2024-03-08T05:07:23.472Z,10.40
2024-03-08T05:08:22.289Z,11.20
2024-03-08T05:09:23.418Z,10.30
2024-03-08T05:10:22.230Z,10.10
2024-03-08T05:11:22.621Z,11.20
2024-03-08T05:12:22.262Z,10.20
2024-03-08T05:13:22.321Z,10.30
2024-03-08T05:14:22.188Z,9.70
2024-03-08T05:15:22.293Z,10.10
2024-03-08T05:16:22.138Z,10.40
2024-03-08T05:17:23.314Z,10.60
2024-03-08T05:18:22.307Z,9.90
2024-03-08T05:19:25.157Z,9.00
2024-03-08T05:20:22.124Z,10.20
2024-03-08T05:21:22.174Z,10.60
2024-03-08T05:22:22.061Z,9.90
2024-03-08T05:23:23.238Z,9.80
2024-03-08T05:24:22.127Z,10.20
2024-03-08T05:25:22.449Z,9.80
2024-03-08T05:26:43.267Z,10.10
2024-03-08T05:27:24.053Z,8.90
2024-03-08T05:28:24.089Z,10.30
2024-03-08T05:29:22.004Z,9.70
2024-03-08T05:30:23.311Z,9.70
2024-03-08T05:31:22.039Z,10.20
2024-03-08T05:32:23.179Z,9.50
2024-03-08T05:33:23.071Z,9.90
2024-03-08T05:34:22.176Z,9.30
2024-03-08T05:35:22.156Z,9.80
2024-03-08T05:36:21.937Z,11.00
2024-03-08T05:37:23.114Z,10.40
2024-03-08T05:38:21.907Z,9.90
2024-03-08T05:39:22.358Z,10.10
2024-03-08T05:40:23.531Z,10.40
2024-03-08T05:41:21.892Z,10.70
2024-03-08T05:42:22.056Z,10.00
2024-03-08T05:43:21.878Z,10.40
2024-03-08T05:44:22.126Z,11.40
2024-03-08T05:45:21.852Z,10.80
2024-03-08T05:46:21.945Z,9.70
2024-03-08T05:47:24.428Z,10.50
2024-03-08T05:48:23.181Z,10.70
2024-03-08T05:49:21.710Z,10.40
2024-03-08T05:50:21.776Z,9.80
2024-03-08T05:51:21.969Z,9.70
2024-03-08T05:52:21.737Z,10.20
2024-03-08T05:53:21.882Z,9.60
2024-03-08T05:54:23.919Z,10.10
2024-03-08T05:55:22.272Z,10.00
2024-03-08T05:56:21.697Z,10.90
2024-03-08T05:57:21.746Z,9.20
2024-03-08T05:58:21.700Z,11.00
2024-03-08T05:59:21.581Z,11.00
2024-03-08T06:00:21.756Z,10.10
2024-03-08T06:01:21.621Z,10.30
2024-03-08T06:02:22.824Z,10.60
2024-03-08T06:03:21.632Z,9.60
2024-03-08T06:04:21.739Z,9.40
2024-03-08T06:05:21.540Z,8.90
2024-03-08T06:06:21.678Z,9.80
2024-03-08T06:07:21.507Z,10.70
2024-03-08T06:08:21.892Z,10.20
2024-03-08T06:09:21.504Z,9.90
2024-03-08T06:10:21.595Z,11.60
2024-03-08T06:11:21.655Z,14.80
2024-03-08T06:12:21.788Z,12.40
2024-03-08T06:13:21.416Z,12.00
2024-03-08T06:14:21.633Z,11.60
2024-03-08T06:15:21.404Z,11.10
2024-03-08T06:16:21.432Z,10.70
2024-03-08T06:17:21.371Z,10.50
2024-03-08T06:18:21.562Z,10.90
2024-03-08T06:19:21.346Z,9.80
2024-03-08T06:20:21.481Z,10.50
2024-03-08T06:21:21.517Z,9.80
2024-03-08T06:22:21.492Z,10.90
2024-03-08T06:23:21.310Z,11.00
2024-03-08T06:24:21.568Z,12.00
2024-03-08T06:25:21.308Z,10.70
2024-03-08T06:26:21.514Z,9.70
2024-03-08T06:27:21.312Z,9.90
2024-03-08T06:28:21.377Z,9.90
2024-03-08T06:29:21.212Z,9.80
2024-03-08T06:30:21.385Z,10.30
2024-03-08T06:31:21.206Z,10.10
2024-03-08T06:32:21.357Z,9.60
2024-03-08T06:33:21.280Z,10.40
2024-03-08T06:34:21.309Z,10.90
2024-03-08T06:35:21.162Z,10.30
2024-03-08T06:36:21.300Z,10.00
2024-03-08T06:37:21.124Z,9.60
2024-03-08T06:38:21.270Z,13.20
2024-03-08T06:39:21.142Z,11.40
2024-03-08T06:40:21.187Z,11.30
2024-03-08T06:41:21.125Z,12.50
2024-03-08T06:42:21.297Z,9.50
2024-03-08T06:43:21.147Z,9.70
2024-03-08T06:44:21.214Z,11.50
2024-03-08T06:45:21.126Z,9.30
2024-03-08T06:46:21.209Z,8.90
2024-03-08T06:47:21.028Z,10.00
2024-03-08T06:48:21.170Z,10.00
2024-03-08T06:49:20.986Z,9.50
2024-03-08T06:50:21.119Z,9.70
2024-03-08T06:51:20.995Z,11.70
2024-03-08T06:52:21.086Z,9.20
2024-03-08T06:53:23.930Z,9.90
2024-03-08T06:54:20.940Z,8.50
2024-03-08T06:55:21.120Z,10.50
2024-03-08T06:56:20.924Z,8.70
2024-03-08T06:57:20.991Z,9.40
2024-03-08T06:58:20.838Z,9.20
2024-03-08T06:59:21.922Z,9.00
2024-03-08T07:00:27.466Z,9.10
2024-03-08T07:01:21.734Z,8.90
2024-03-08T07:02:20.806Z,8.10
2024-03-08T07:03:20.880Z,8.00
2024-03-08T07:04:20.773Z,8.80
2024-03-08T07:05:20.799Z,8.30
2024-03-08T07:06:20.810Z,7.80
2024-03-08T07:07:20.757Z,8.20
2024-03-08T07:08:20.739Z,8.20
2024-03-08T07:09:20.857Z,8.00
2024-03-08T07:10:20.718Z,7.50
2024-03-08T07:11:20.720Z,8.30
2024-03-08T07:12:20.693Z,8.10
2024-03-08T07:13:20.715Z,8.80
2024-03-08T07:14:20.763Z,8.20
2024-03-08T07:15:20.907Z,7.80
2024-03-08T07:16:20.632Z,8.30
2024-03-08T07:17:20.640Z,7.60
2024-03-08T07:18:20.830Z,8.20
2024-03-08T07:19:20.654Z,7.50
2024-03-08T07:20:20.597Z,7.60
2024-03-08T07:21:20.717Z,7.70
2024-03-08T07:22:20.524Z,7.40
2024-03-08T07:23:20.670Z,8.60
2024-03-08T07:24:20.630Z,7.40
2024-03-08T07:25:20.559Z,8.40
2024-03-08T07:26:20.568Z,7.50
2024-03-08T07:27:20.544Z,7.80
2024-03-08T07:28:20.463Z,7.80
2024-03-08T07:29:20.468Z,8.40
2024-03-08T07:30:20.637Z,8.00
2024-03-08T07:31:20.468Z,7.30
2024-03-08T07:32:20.425Z,7.70
2024-03-08T07:33:20.513Z,7.80
2024-03-08T07:34:20.409Z,8.50
2024-03-08T07:35:20.412Z,7.20
2024-03-08T07:36:20.425Z,7.70
2024-03-08T07:37:20.438Z,7.80
2024-03-08T07:38:20.328Z,7.80
2024-03-08T07:39:20.413Z,8.20
2024-03-08T07:40:21.929Z,7.60
2024-03-08T07:41:20.312Z,8.00
2024-03-08T07:42:20.277Z,8.80
2024-03-08T07:43:20.324Z,8.20
2024-03-08T07:44:20.298Z,7.80
2024-03-08T07:45:20.304Z,9.10
2024-03-08T07:46:20.258Z,7.60
2024-03-08T07:47:21.770Z,8.20
2024-03-08T07:48:20.266Z,8.10
2024-03-08T07:49:20.217Z,8.10
2024-03-08T07:50:20.227Z,7.60
2024-03-08T07:51:20.293Z,7.80
2024-03-08T07:52:20.164Z,8.30
2024-03-08T07:53:20.182Z,7.50
2024-03-08T07:54:20.215Z,7.80
2024-03-08T07:55:20.142Z,8.20
2024-03-08T07:56:20.109Z,7.50
2024-03-08T07:57:20.113Z,8.00
2024-03-08T07:58:20.164Z,7.40
2024-03-08T07:59:20.109Z,7.40
2024-03-08T08:00:20.081Z,8.20
2024-03-08T08:01:20.156Z,8.30
2024-03-08T08:02:20.121Z,8.20
2024-03-08T08:03:20.050Z,7.70
2024-03-08T08:04:20.098Z,8.30
2024-03-08T08:05:20.010Z,8.40
2024-03-08T08:06:20.021Z,8.20
2024-03-08T08:07:20.011Z,8.20
2024-03-08T08:08:19.969Z,8.40
2024-03-08T08:09:19.953Z,7.80
2024-03-08T08:10:19.994Z,8.20
2024-03-08T08:11:20.010Z,8.20
2024-03-08T08:12:19.977Z,8.00
2024-03-08T08:13:19.951Z,7.90
2024-03-08T08:14:19.979Z,8.00
2024-03-08T08:15:19.936Z,7.80
2024-03-08T08:16:20.009Z,8.50
2024-03-08T08:17:19.921Z,7.60
2024-03-08T08:18:19.862Z,9.10
2024-03-08T08:19:19.929Z,8.60
2024-03-08T08:20:19.891Z,7.90
2024-03-08T08:21:20.023Z,9.70
2024-03-08T08:22:19.841Z,8.00
2024-03-08T08:23:19.847Z,9.70
2024-03-08T08:24:19.835Z,9.30
2024-03-08T08:25:19.800Z,8.40
2024-03-08T08:26:19.743Z,8.40
2024-03-08T08:27:19.833Z,8.30
2024-03-08T08:28:19.890Z,8.90
2024-03-08T08:29:19.794Z,8.00
2024-03-08T08:30:19.746Z,7.70
2024-03-08T08:31:19.746Z,8.50
2024-03-08T08:32:19.662Z,7.80
2024-03-08T08:33:19.798Z,8.30
2024-03-08T08:34:19.696Z,7.50
2024-03-08T08:35:20.014Z,7.60
2024-03-08T08:36:19.668Z,7.30
2024-03-08T08:37:21.098Z,8.00
2024-03-08T08:38:19.631Z,6.80
2024-03-08T08:39:19.669Z,7.80
2024-03-08T08:40:19.722Z,7.50
2024-03-08T08:41:19.638Z,7.10
2024-03-08T08:42:19.601Z,8.50
2024-03-08T08:43:19.643Z,7.70
2024-03-08T08:44:19.705Z,7.30
2024-03-08T08:45:23.436Z,6.80
2024-03-08T08:46:21.161Z,7.10
2024-03-08T08:47:19.580Z,6.50
2024-03-08T08:48:19.491Z,7.10
2024-03-08T08:49:19.480Z,8.10
2024-03-08T08:50:19.451Z,6.90
2024-03-08T08:51:19.476Z,6.80
2024-03-08T08:52:19.482Z,7.20
2024-03-08T08:53:19.449Z,6.80
2024-03-08T08:54:19.393Z,6.90
2024-03-08T08:55:19.434Z,7.20
2024-03-08T08:56:19.348Z,7.10
2024-03-08T08:57:19.432Z,7.20
2024-03-08T08:58:19.428Z,6.80
2024-03-08T08:59:23.174Z,7.60
2024-03-08T09:00:19.300Z,8.60
2024-03-08T09:01:19.405Z,7.90
2024-03-08T09:02:19.498Z,7.50
2024-03-08T09:03:19.281Z,8.80
2024-03-08T09:04:19.292Z,7.70
2024-03-08T09:05:19.289Z,7.80
2024-03-08T09:06:19.259Z,8.10
2024-03-08T09:07:19.319Z,7.70
2024-03-08T09:08:19.235Z,8.00
2024-03-08T09:09:19.197Z,7.80
2024-03-08T09:10:19.257Z,7.10
2024-03-08T09:11:19.216Z,7.40
2024-03-08T09:12:19.244Z,7.30
2024-03-08T09:13:28.443Z,6.90
2024-03-08T09:14:19.155Z,8.20
2024-03-08T09:15:19.228Z,8.40
2024-03-08T09:16:19.237Z,8.00
2024-03-08T09:17:19.110Z,7.60
2024-03-08T09:18:19.132Z,6.80
2024-03-08T09:19:19.182Z,7.50
2024-03-08T09:20:19.104Z,7.00
2024-03-08T09:21:20.250Z,7.60
2024-03-08T09:22:19.053Z,7.40
2024-03-08T09:23:19.033Z,7.10
2024-03-08T09:24:19.016Z,7.20
2024-03-08T09:25:19.096Z,6.70
2024-03-08T09:26:25.879Z,7.70
2024-03-08T09:27:19.061Z,6.90
2024-03-08T09:28:19.051Z,6.90
2024-03-08T09:29:18.993Z,7.60
2024-03-08T09:30:19.083Z,7.00
2024-03-08T09:31:18.963Z,7.30
2024-03-08T09:32:18.967Z,7.80
2024-03-08T09:33:18.951Z,7.30
2024-03-08T09:34:22.840Z,7.20
2024-03-08T09:35:18.939Z,6.70
2024-03-08T09:36:18.955Z,6.90
2024-03-08T09:37:18.944Z,7.70
2024-03-08T09:38:18.899Z,7.20
2024-03-08T09:39:18.849Z,7.30
2024-03-08T09:40:18.865Z,7.20
2024-03-08T09:41:18.903Z,7.20
2024-03-08T09:42:18.815Z,6.40
2024-03-08T09:43:20.381Z,6.80
2024-03-08T09:44:18.738Z,6.60
2024-03-08T09:45:18.789Z,6.60
2024-03-08T09:46:18.736Z,6.10
2024-03-08T09:47:18.730Z,7.40
2024-03-08T09:48:18.706Z,6.70
2024-03-08T09:49:18.752Z,6.80
2024-03-08T09:50:19.523Z,6.50
2024-03-08T09:51:18.677Z,6.80
2024-03-08T09:52:18.660Z,6.70
2024-03-08T09:53:18.850Z,6.90
2024-03-08T09:54:23.280Z,6.40
2024-03-08T09:55:18.648Z,6.40
2024-03-08T09:56:18.624Z,6.60
2024-03-08T09:57:20.970Z,6.40
2024-03-08T09:58:18.815Z,6.80
2024-03-08T09:59:18.614Z,6.20
2024-03-08T10:00:18.649Z,7.00
2024-03-08T10:01:18.641Z,7.50
2024-03-08T10:02:18.640Z,6.60
2024-03-08T10:03:18.570Z,6.40
2024-03-08T10:04:18.637Z,6.50
2024-03-08T10:05:18.544Z,6.80
2024-03-08T10:06:18.578Z,6.80
2024-03-08T10:07:18.609Z,6.10
2024-03-08T10:08:18.516Z,7.40
2024-03-08T10:09:18.445Z,6.50
2024-03-08T10:10:18.500Z,7.10
2024-03-08T10:11:18.634Z,7.00
2024-03-08T10:12:18.385Z,6.40
2024-03-08T10:13:18.551Z,6.40
2024-03-08T10:14:19.577Z,7.10
2024-03-08T10:15:18.494Z,6.00
2024-03-08T10:16:18.432Z,5.90
2024-03-08T10:17:18.410Z,6.80
2024-03-08T10:18:18.363Z,7.50
2024-03-08T10:19:18.436Z,6.80
2024-03-08T10:20:18.476Z,6.40
2024-03-08T10:21:19.189Z,7.30
2024-03-08T10:22:18.300Z,6.60
2024-03-08T10:23:18.307Z,6.80
2024-03-08T10:24:18.249Z,6.00
2024-03-08T10:25:18.248Z,6.80
2024-03-08T10:26:18.196Z,7.20
2024-03-08T10:27:18.241Z,6.00
2024-03-08T10:28:18.195Z,6.70
2024-03-08T10:29:18.193Z,6.30
2024-03-08T10:30:18.209Z,6.30
2024-03-08T10:31:19.481Z,6.10
2024-03-08T10:32:18.182Z,6.10
2024-03-08T10:33:18.209Z,6.80
2024-03-08T10:34:18.146Z,6.10
2024-03-08T10:35:18.236Z,6.30
2024-03-08T10:36:18.157Z,6.50
2024-03-08T10:37:18.160Z,5.90
2024-03-08T10:38:18.108Z,6.70
2024-03-08T10:39:18.100Z,5.90
2024-03-08T10:40:18.193Z,7.20
2024-03-08T10:41:18.609Z,6.30
2024-03-08T10:42:19.248Z,6.20
2024-03-08T10:43:18.451Z,6.50
2024-03-08T10:44:18.159Z,6.10
2024-03-08T10:45:18.031Z,6.40
2024-03-08T10:46:24.371Z,6.10
2024-03-08T10:47:17.964Z,5.90
2024-03-08T10:48:18.041Z,6.50
2024-03-08T10:49:17.988Z,6.50
2024-03-08T10:50:18.026Z,6.30
2024-03-08T10:51:17.915Z,6.50
2024-03-08T10:52:18.046Z,5.80
2024-03-08T10:53:18.006Z,6.60
2024-03-08T10:54:17.855Z,6.30
2024-03-08T10:55:17.893Z,6.60
2024-03-08T10:56:17.857Z,6.90
2024-03-08T10:57:17.889Z,6.40
2024-03-08T10:58:17.952Z,6.70
2024-03-08T10:59:17.871Z,6.00
2024-03-08T11:00:17.856Z,6.10
2024-03-08T11:01:17.871Z,5.50
2024-03-08T11:02:17.934Z,5.00
2024-03-08T11:03:17.757Z,5.60
2024-03-08T11:04:17.808Z,5.70
2024-03-08T11:05:17.709Z,6.50
2024-03-08T11:06:17.853Z,5.80
2024-03-08T11:07:17.856Z,5.40
2024-03-08T11:08:17.692Z,5.90
2024-03-08T11:09:17.630Z,6.00
2024-03-08T11:10:17.685Z,5.80
2024-03-08T11:11:17.703Z,5.60
2024-03-08T11:12:17.653Z,5.50
2024-03-08T11:13:17.621Z,5.50
2024-03-08T11:14:17.885Z,5.60
2024-03-08T11:15:17.561Z,6.20
2024-03-08T11:16:17.652Z,6.60
2024-03-08T11:17:19.242Z,5.80
2024-03-08T11:18:17.559Z,6.00
2024-03-08T11:19:17.566Z,6.50
2024-03-08T11:20:17.610Z,5.60
2024-03-08T11:21:17.489Z,5.80
2024-03-08T11:22:17.546Z,6.00
2024-03-08T11:23:17.467Z,5.90
2024-03-08T11:24:17.518Z,6.10
2024-03-08T11:25:17.553Z,5.70
2024-03-08T11:26:17.454Z,6.30
2024-03-08T11:27:17.409Z,5.70
2024-03-08T11:28:17.593Z,5.80
2024-03-08T11:29:17.414Z,5.50
2024-03-08T11:30:19.010Z,6.00
2024-03-08T11:31:17.355Z,6.10
2024-03-08T11:32:17.364Z,6.20
2024-03-08T11:33:17.397Z,5.80
2024-03-08T11:34:17.461Z,5.90
2024-03-08T11:35:17.297Z,6.40
2024-03-08T11:36:17.304Z,5.30
2024-03-08T11:37:17.325Z,6.20
2024-03-08T11:38:17.285Z,6.00
2024-03-08T11:39:17.274Z,6.90
2024-03-08T11:40:17.415Z,6.90
2024-03-08T11:41:19.201Z,7.10
2024-03-08T11:42:17.227Z,6.50
2024-03-08T11:43:17.196Z,6.20
2024-03-08T11:44:17.337Z,5.90
2024-03-08T11:45:17.202Z,6.00
2024-03-08T11:46:30.125Z,6.10
2024-03-08T11:47:17.211Z,5.90
2024-03-08T11:48:17.381Z,5.60
2024-03-08T11:49:17.131Z,6.10
2024-03-08T11:50:17.236Z,5.30
2024-03-08T11:51:17.091Z,6.00
2024-03-08T11:52:17.303Z,5.20
2024-03-08T11:53:17.078Z,5.80
2024-03-08T11:54:17.122Z,5.60
2024-03-08T11:55:17.076Z,5.20
2024-03-08T11:56:17.259Z,5.60
2024-03-08T11:57:17.068Z,5.10
2024-03-08T11:58:17.123Z,6.10
2024-03-08T11:59:17.023Z,5.10
2024-03-08T12:00:17.173Z,5.20
2024-03-08T12:01:17.078Z,4.70
2024-03-08T12:02:17.118Z,5.50
2024-03-08T12:03:16.949Z,5.90
2024-03-08T12:04:17.034Z,6.20
2024-03-08T12:05:16.936Z,5.40
2024-03-08T12:06:17.033Z,5.70
2024-03-08T12:07:16.956Z,4.90
2024-03-08T12:08:17.088Z,5.70
2024-03-08T12:09:16.858Z,5.30
2024-03-08T12:10:16.982Z,5.50
2024-03-08T12:11:16.923Z,5.60
2024-03-08T12:12:17.932Z,5.20
2024-03-08T12:13:16.954Z,5.20
2024-03-08T12:14:16.917Z,5.80
2024-03-08T12:15:16.775Z,5.50
2024-03-08T12:16:17.005Z,5.70
2024-03-08T12:17:16.760Z,6.00
2024-03-08T12:18:16.886Z,5.20
2024-03-08T12:19:16.842Z,5.60
2024-03-08T12:20:16.794Z,5.50
2024-03-08T12:21:16.734Z,5.70
2024-03-08T12:22:16.984Z,5.30
2024-03-08T12:23:16.709Z,6.10
2024-03-08T12:24:16.823Z,5.30
2024-03-08T12:25:16.695Z,5.00
2024-03-08T12:26:16.851Z,5.80
2024-03-08T12:27:16.660Z,5.70
2024-03-08T12:28:17.006Z,5.10
2024-03-08T12:29:16.666Z,5.80
2024-03-08T12:30:16.650Z,5.30
2024-03-08T12:31:16.634Z,5.40
2024-03-08T12:32:16.679Z,5.30
2024-03-08T12:33:16.729Z,5.60
2024-03-08T12:34:16.718Z,5.50
2024-03-08T12:35:16.560Z,5.50
2024-03-08T12:36:16.646Z,5.20
2024-03-08T12:37:16.563Z,5.00
2024-03-08T12:38:16.767Z,5.20
2024-03-08T12:39:16.473Z,5.40
2024-03-08T12:40:17.831Z,5.40
2024-03-08T12:41:17.511Z,5.40
2024-03-08T12:42:16.523Z,5.60
2024-03-08T12:43:17.240Z,5.70
2024-03-08T12:44:16.477Z,5.50
2024-03-08T12:45:16.432Z,5.40
2024-03-08T12:46:16.469Z,5.60
2024-03-08T12:47:16.492Z,5.10
2024-03-08T12:48:16.406Z,5.20
2024-03-08T12:49:16.589Z,5.60
2024-03-08T12:50:16.371Z,5.30
2024-03-08T12:51:16.547Z,5.60
2024-03-08T12:52:17.576Z,5.10
2024-03-08T12:53:16.556Z,5.70
2024-03-08T12:54:16.400Z,5.50
2024-03-08T12:55:16.356Z,5.80
2024-03-08T12:56:18.669Z,5.80
2024-03-08T12:57:16.306Z,5.30
2024-03-08T12:58:16.446Z,5.20
2024-03-08T12:59:16.247Z,5.80
2024-03-08T13:00:16.467Z,5.10
2024-03-08T13:01:16.350Z,5.50
2024-03-08T13:02:17.379Z,5.50
2024-03-08T13:03:16.228Z,5.10
2024-03-08T13:04:16.487Z,5.20
2024-03-08T13:05:16.159Z,5.00
2024-03-08T13:06:16.334Z,5.50
2024-03-08T13:07:16.138Z,5.30
2024-03-08T13:08:16.344Z,5.60
2024-03-08T13:09:16.136Z,5.30
2024-03-08T13:10:16.369Z,5.20
2024-03-08T13:11:16.648Z,5.60
2024-03-08T13:12:16.233Z,5.30
2024-03-08T13:13:16.084Z,5.70
2024-03-08T13:14:16.342Z,5.10
2024-03-08T13:15:16.057Z,5.90